Time;durP1;ratioP1;P1;durP2;ratioP2;P2;SDS_P1;SDS_P2;PMS_P1;PMS_P2;Temp;Humidity;BMP_temperature;BMP_pressure;BME280_temperature;BME280_humidity;BME280_pressure;Samples;Min_cycle;Max_cycle;Signal;HPM_P1;HPM_P2
2022/03/16 00:00:49;;;;;;;23.35;15.27;;;;;;;5.33;47.44;102334.00;2106451;28;20255;-70
2022/03/16 00:01:50;;;;;;;24.33;17.63;;;;;;;6.29;47.60;102504.59;2106108;28;20193;-70
2022/03/16 00:02:51;;;;;;;23.67;17.43;;;;;;;5.64;47.44;102372.47;2105991;28;20221;-70
2022/03/16 00:03:51;;;;;;;24.67;17.30;;;;;;;6.12;47.04;102449.91;2105649;28;20179;-70
2022/03/16 00:04:54;;;;;;;22.50;16.53;;;;;;;6.35;47.29;102494.88;2105845;28;20236;-70
2022/03/16 00:05:55;;;;;;;25.48;17.10;;;;;;;6.31;47.77;102496.75;2106252;28;20174;-70
2022/03/16 00:06:55;;;;;;;24.60;17.43;;;;;;;5.40;47.38;102345.16;2106415;28;20764;-70
2022/03/16 00:07:56;;;;;;;24.10;16.47;;;;;;;6.39;47.23;102504.03;2106432;28;20193;-70
2022/03/16 00:08:56;;;;;;;18.87;14.03;;;;;;;6.36;47.77;102492.94;2106653;28;20185;-70
2022/03/16 00:09:57;;;;;;;16.37;11.53;;;;;;;6.32;47.25;102484.59;2106412;28;20458;-70
2022/03/16 00:10:58;;;;;;;20.73;13.27;;;;;;;6.32;47.25;102483.78;2106444;28;20225;-70
2022/03/16 00:11:59;;;;;;;16.60;12.93;;;;;;;6.34;47.55;102515.31;2106342;28;20181;-70
2022/03/16 00:13:00;;;;;;;21.17;15.37;;;;;;;6.15;47.53;102448.41;2101808;28;20179;-70
2022/03/16 00:14:00;;;;;;;18.10;14.13;;;;;;;6.33;47.20;102483.44;2097062;28;20213;-70
2022/03/16 00:15:01;;;;;;;19.83;14.17;;;;;;;4.71;47.74;102229.56;2098072;28;20182;-70
2022/03/16 00:16:01;;;;;;;17.30;12.73;;;;;;;6.18;47.68;102462.25;2097451;28;20195;-70
2022/03/16 00:17:03;;;;;;;17.83;12.20;;;;;;;6.29;47.17;102490.81;2097464;28;20210;-70
2022/03/16 00:18:04;;;;;;;14.20;10.80;;;;;;;6.24;47.19;102482.81;2097846;28;20174;-70
2022/03/16 00:19:04;;;;;;;19.03;13.23;;;;;;;6.21;47.70;102483.53;2098039;28;20179;-70
2022/03/16 00:20:05;;;;;;;18.97;12.50;;;;;;;6.24;47.24;102482.81;2101818;28;20182;-70
2022/03/16 00:21:06;;;;;;;19.23;12.73;;;;;;;6.27;47.78;102482.13;2106256;28;20684;-70
2022/03/16 00:22:07;;;;;;;22.07;14.77;;;;;;;4.37;47.82;102181.63;2106418;28;20628;-70
2022/03/16 00:23:08;;;;;;;22.23;15.02;;;;;;;5.34;48.21;102339.13;2105673;28;20584;-70
2022/03/16 00:24:08;;;;;;;19.60;14.13;;;;;;;6.33;48.04;102474.38;2105426;28;20206;-70
2022/03/16 00:25:10;;;;;;;17.23;12.43;;;;;;;5.84;48.04;102402.44;2105744;28;20190;-70
2022/03/16 00:26:11;;;;;;;17.83;12.77;;;;;;;6.37;47.88;102478.81;2105375;28;20558;-70
2022/03/16 00:27:12;;;;;;;20.27;14.60;;;;;;;6.40;48.55;102474.53;2105460;28;20194;-70
2022/03/16 00:28:12;;;;;;;18.27;13.00;;;;;;;6.35;48.04;102461.84;2106427;28;20166;-70
2022/03/16 00:29:13;;;;;;;18.80;12.90;;;;;;;6.43;48.24;102468.31;2106364;28;20456;-70
2022/03/16 00:30:13;;;;;;;18.33;12.40;;;;;;;6.38;47.47;102460.31;2106489;28;20175;-70
2022/03/16 00:31:14;;;;;;;17.90;12.43;;;;;;;6.31;47.61;102458.19;2106135;28;20204;-70
2022/03/16 00:32:14;;;;;;;18.97;12.80;;;;;;;5.10;48.11;102258.81;2106392;28;20182;-70
2022/03/16 00:33:15;;;;;;;17.47;13.20;;;;;;;6.41;48.00;102448.59;2105063;28;20247;-70
2022/03/16 00:34:16;;;;;;;19.27;12.43;;;;;;;6.35;47.37;102445.31;2105453;28;20180;-70
2022/03/16 00:35:16;;;;;;;17.53;12.57;;;;;;;6.43;47.73;102458.09;2106383;28;20299;-70
2022/03/16 00:36:17;;;;;;;16.93;12.20;;;;;;;6.43;47.45;102449.84;2105484;28;20731;-70
2022/03/16 00:37:18;;;;;;;18.97;12.07;;;;;;;6.26;47.66;102419.16;2104606;28;20372;-70
2022/03/16 00:38:18;;;;;;;19.77;13.47;;;;;;;5.60;47.40;102316.56;2106103;28;20263;-70
2022/03/16 00:39:19;;;;;;;21.20;13.57;;;;;;;6.45;46.84;102447.50;2106273;28;20178;-70
2022/03/16 00:40:20;;;;;;;18.63;13.63;;;;;;;6.49;46.96;102458.59;2106181;28;20207;-70
2022/03/16 00:41:21;;;;;;;17.60;13.30;;;;;;;6.55;46.67;102457.94;2106325;28;20678;-70
2022/03/16 00:42:21;;;;;;;18.50;12.93;;;;;;;6.26;46.87;102394.38;2106239;28;20172;-70
2022/03/16 00:43:22;;;;;;;20.97;12.10;;;;;;;6.56;46.32;102450.50;2105146;28;20178;-70
2022/03/16 00:44:22;;;;;;;17.63;13.17;;;;;;;6.55;46.08;102452.44;2105454;28;20238;-70
2022/03/16 00:45:23;;;;;;;21.30;14.93;;;;;;;6.44;46.59;102436.84;2106155;28;20193;-70
2022/03/16 00:46:24;;;;;;;23.20;14.80;;;;;;;6.53;46.22;102445.69;2106034;28;20268;-70
2022/03/16 00:47:24;;;;;;;21.07;15.13;;;;;;;6.48;46.39;102446.78;2104925;28;20175;-70
2022/03/16 00:48:25;;;;;;;19.37;14.87;;;;;;;5.19;46.66;102251.19;2104777;28;20241;-70
2022/03/16 00:49:25;;;;;;;20.10;14.27;;;;;;;6.43;47.46;102444.31;2106238;28;20213;-70
2022/03/16 00:50:26;;;;;;;19.63;13.00;;;;;;;6.45;47.00;102444.75;2106130;28;20175;-70
2022/03/16 00:51:27;;;;;;;20.67;13.23;;;;;;;5.12;47.11;102245.53;2106358;28;20217;-70
2022/03/16 00:52:28;;;;;;;19.37;12.77;;;;;;;5.97;46.94;102361.88;2106102;28;20186;-70
2022/03/16 00:53:30;;;;;;;17.93;12.47;;;;;;;6.51;46.99;102443.31;2105213;28;20205;-70
2022/03/16 00:54:31;;;;;;;19.85;13.02;;;;;;;6.53;46.55;102445.69;2104886;28;20179;-70
2022/03/16 00:55:31;;;;;;;17.07;12.33;;;;;;;6.38;46.78;102411.56;2105678;28;20219;-70
2022/03/16 00:56:32;;;;;;;19.40;12.33;;;;;;;6.54;46.73;102439.84;2106202;28;20178;-70
2022/03/16 00:57:32;;;;;;;16.63;12.47;;;;;;;6.55;46.89;102444.19;2105786;28;20177;-70
2022/03/16 00:58:33;;;;;;;17.90;13.10;;;;;;;6.55;46.60;102440.63;2105399;28;20180;-70
2022/03/16 00:59:33;;;;;;;16.83;12.67;;;;;;;5.79;46.66;102322.13;2106035;28;20185;-70
2022/03/16 01:00:34;;;;;;;18.53;13.57;;;;;;;6.01;47.18;102354.50;2106024;28;20265;-70
2022/03/16 01:01:36;;;;;;;20.57;14.87;;;;;;;6.45;47.34;102436.50;2105979;28;20226;-70
2022/03/16 01:02:37;;;;;;;23.25;16.65;;;;;;;6.47;47.88;102427.88;2105669;28;20181;-70
2022/03/16 01:03:40;;;;;;;24.93;16.40;;;;;;;6.45;47.74;102428.22;2105582;28;20182;-70
2022/03/16 01:04:41;;;;;;;22.77;16.70;;;;;;;6.45;48.18;102435.69;2105318;28;20176;-70
2022/03/16 01:05:42;;;;;;;22.83;16.45;;;;;;;5.94;48.08;102338.59;2106087;28;20236;-70
2022/03/16 01:06:42;;;;;;;18.30;13.97;;;;;;;6.44;48.48;102418.38;2106036;28;20315;-70
2022/03/16 01:07:43;;;;;;;18.87;13.60;;;;;;;6.42;49.06;102423.44;2105531;28;20171;-70
2022/03/16 01:08:44;;;;;;;19.40;13.60;;;;;;;6.42;48.95;102417.13;2105703;28;20182;-70
2022/03/16 01:09:44;;;;;;;20.17;14.00;;;;;;;6.41;49.69;102412.78;2105548;28;20171;-70
2022/03/16 01:10:45;;;;;;;15.30;12.30;;;;;;;6.41;49.40;102421.06;2105980;28;20213;-70
2022/03/16 01:11:46;;;;;;;14.73;10.37;;;;;;;6.40;49.77;102417.50;2105956;28;20306;-70
2022/03/16 01:12:46;;;;;;;13.60;9.90;;;;;;;6.40;49.88;102414.75;2103388;28;20182;-70
2022/03/16 01:13:47;;;;;;;13.37;10.40;;;;;;;5.91;49.86;102336.59;2096113;28;20222;-70
2022/03/16 01:14:47;;;;;;;14.10;10.03;;;;;;;6.38;49.85;102410.75;2096468;28;20178;-70
2022/03/16 01:15:48;;;;;;;15.63;10.50;;;;;;;6.21;49.87;102386.41;2097456;28;20257;-70
2022/03/16 01:16:48;;;;;;;15.60;10.80;;;;;;;5.76;50.34;102315.41;2097324;28;20211;-70
2022/03/16 01:17:50;;;;;;;13.90;10.37;;;;;;;6.27;50.53;102399.53;2097417;28;20171;-70
2022/03/16 01:18:51;;;;;;;16.17;10.57;;;;;;;6.20;50.73;102393.84;2097503;28;20172;-70
2022/03/16 01:19:51;;;;;;;14.27;10.60;;;;;;;6.18;50.00;102401.69;2098738;28;20233;-70
2022/03/16 01:20:52;;;;;;;13.30;10.20;;;;;;;6.18;50.46;102395.34;2105587;28;20595;-70
2022/03/16 01:21:53;;;;;;;14.97;10.93;;;;;;;6.15;50.53;102409.84;2105821;28;20201;-70
2022/03/16 01:22:54;;;;;;;12.77;10.18;;;;;;;6.15;50.85;102399.63;2105534;28;20178;-70
2022/03/16 01:23:54;;;;;;;15.13;11.23;;;;;;;6.14;50.63;102394.47;2104850;28;20202;-70
2022/03/16 01:24:55;;;;;;;16.13;10.70;;;;;;;6.12;50.41;102396.81;2105686;28;20171;-70
2022/03/16 01:25:55;;;;;;;14.47;10.43;;;;;;;6.11;50.49;102395.22;2106156;28;20203;-70
2022/03/16 01:26:56;;;;;;;16.93;10.37;;;;;;;6.08;50.29;102393.16;2105543;28;20235;-70
2022/03/16 01:27:56;;;;;;;22.73;11.13;;;;;;;5.03;50.12;102231.19;2106025;28;20257;-70
2022/03/16 01:28:57;;;;;;;19.60;11.70;;;;;;;6.17;50.50;102402.84;2105790;28;20636;-70
2022/03/16 01:29:57;;;;;;;19.13;12.00;;;;;;;6.20;50.14;102395.81;2105790;28;20258;-70
2022/03/16 01:31:00;;;;;;;16.30;11.43;;;;;;;6.16;50.51;102397.69;2105274;28;20194;-70
2022/03/16 01:32:00;;;;;;;17.77;11.35;;;;;;;6.06;50.51;102385.25;2105770;28;20179;-70
2022/03/16 01:33:01;;;;;;;15.67;11.87;;;;;;;6.12;50.42;102402.31;2105543;28;20174;-70
2022/03/16 01:34:02;;;;;;;17.97;12.00;;;;;;;6.10;50.20;102399.91;2104689;28;20185;-70
2022/03/16 01:35:03;;;;;;;18.98;12.02;;;;;;;6.08;51.11;102402.25;2105831;28;20679;-70
2022/03/16 01:36:04;;;;;;;22.20;13.47;;;;;;;6.05;50.32;102394.69;2105502;28;20662;-70
2022/03/16 01:37:05;;;;;;;20.52;12.50;;;;;;;4.93;50.10;102217.97;2105421;28;20665;-70
2022/03/16 01:38:06;;;;;;;20.57;12.43;;;;;;;5.34;50.64;102275.13;2105832;28;20181;-70
2022/03/16 01:39:06;;;;;;;21.43;13.00;;;;;;;6.06;50.78;102387.22;2105751;28;20547;-70
2022/03/16 01:40:07;;;;;;;17.87;11.97;;;;;;;6.04;50.90;102409.59;2105815;28;20206;-70
2022/03/16 01:41:08;;;;;;;19.23;12.48;;;;;;;6.06;50.42;102379.75;2105326;28;20197;-70
2022/03/16 01:42:08;;;;;;;15.17;11.17;;;;;;;6.03;50.07;102374.19;2105676;28;20183;-70
2022/03/16 01:43:09;;;;;;;20.97;11.00;;;;;;;6.09;50.70;102387.31;2105126;28;20193;-70
2022/03/16 01:44:10;;;;;;;19.80;12.40;;;;;;;6.05;50.28;102389.19;2100203;28;20189;-70
2022/03/16 01:45:10;;;;;;;19.92;12.65;;;;;;;4.73;50.46;102175.09;2097257;28;20178;-70
2022/03/16 01:46:11;;;;;;;19.17;12.00;;;;;;;6.08;50.62;102387.66;2097320;28;20173;-70
2022/03/16 01:47:13;;;;;;;17.70;11.80;;;;;;;6.05;50.64;102378.16;2096847;28;20183;-70
2022/03/16 01:48:14;;;;;;;17.35;12.50;;;;;;;6.06;50.90;102385.25;2097013;28;20179;-70
2022/03/16 01:49:14;;;;;;;17.03;11.77;;;;;;;5.96;50.83;102363.84;2097154;28;20182;-70
2022/03/16 01:50:15;;;;;;;18.50;12.50;;;;;;;6.05;50.58;102382.91;2097417;28;20745;-70
2022/03/16 01:51:15;;;;;;;17.23;11.93;;;;;;;6.02;50.22;102369.84;2096472;28;20301;-70
2022/03/16 01:52:19;;;;;;;16.00;11.80;;;;;;;6.06;49.79;102392.75;2096332;28;20281;-70
2022/03/16 01:53:24;;;;;;;15.82;11.38;;;;;;;4.80;49.87;102176.06;2096679;28;20276;-70
2022/03/16 01:54:25;;;;;;;15.68;11.38;;;;;;;6.01;49.78;102360.00;2096622;28;20163;-70
2022/03/16 01:55:26;;;;;;;17.80;12.37;;;;;;;6.12;49.86;102364.59;2097388;28;20712;-70
2022/03/16 01:56:26;;;;;;;15.20;12.17;;;;;;;6.13;49.71;102363.41;2097229;28;20552;-70
2022/03/16 01:57:27;;;;;;;18.67;12.33;;;;;;;6.13;50.13;102366.16;2096987;28;20232;-70
2022/03/16 01:58:27;;;;;;;18.43;11.67;;;;;;;5.99;49.66;102334.78;2097238;28;20200;-70
2022/03/16 01:59:30;;;;;;;16.67;12.07;;;;;;;5.34;50.71;102259.41;2096533;28;20607;-70
2022/03/16 02:00:30;;;;;;;17.67;11.63;;;;;;;6.16;50.88;102359.16;2096747;28;20691;-70
2022/03/16 02:01:31;;;;;;;18.30;12.33;;;;;;;6.06;50.33;102332.19;2097366;28;20700;-70
2022/03/16 02:02:31;;;;;;;15.13;11.50;;;;;;;6.11;50.35;102337.41;2096564;28;20170;-70
2022/03/16 02:03:32;;;;;;;17.93;12.30;;;;;;;6.22;50.24;102347.50;2096653;28;20255;-70
2022/03/16 02:04:33;;;;;;;16.07;11.50;;;;;;;6.23;50.71;102343.59;2096531;28;20185;-70
2022/03/16 02:05:34;;;;;;;15.00;10.77;;;;;;;6.08;50.75;102313.34;2097188;28;20637;-70
2022/03/16 02:06:35;;;;;;;15.95;11.88;;;;;;;6.14;51.17;102325.66;2097079;28;20179;-70
2022/03/16 02:07:37;;;;;;;16.03;11.87;;;;;;;6.22;51.00;102344.75;2096851;28;20176;-70
2022/03/16 02:08:40;;;;;;;17.50;12.32;;;;;;;6.23;50.85;102329.00;2097419;28;20683;-70
2022/03/16 02:09:40;;;;;;;16.70;11.30;;;;;;;6.23;49.53;102329.00;2097074;28;20174;-70
2022/03/16 02:10:41;;;;;;;20.63;13.33;;;;;;;6.08;49.01;102332.63;2097126;28;20180;-70
2022/03/16 02:11:41;;;;;;;22.00;15.37;;;;;;;5.22;49.29;102190.00;2097201;28;20182;-70
2022/03/16 02:12:50;;;;;;;16.13;11.43;;;;;;;6.19;50.21;102328.94;2098097;28;20201;-70
2022/03/16 02:13:51;;;;;;;16.38;11.88;;;;;;;6.22;50.10;102330.16;2104611;28;20183;-70
2022/03/16 02:14:51;;;;;;;16.43;11.77;;;;;;;6.26;50.03;102317.28;2105116;28;20186;-70
2022/03/16 02:15:52;;;;;;;22.20;15.13;;;;;;;5.66;49.86;102219.69;2105682;28;20228;-70
2022/03/16 02:16:55;;;;;;;15.73;11.80;;;;;;;5.33;50.24;102153.34;2105227;28;20663;-70
2022/03/16 02:17:56;;;;;;;16.73;11.73;;;;;;;6.39;49.81;102313.19;2105458;28;20216;-70
2022/03/16 02:18:56;;;;;;;18.27;12.77;;;;;;;6.38;50.24;102317.13;2105619;28;20612;-70
2022/03/16 02:19:57;;;;;;;20.20;12.57;;;;;;;6.46;50.05;102322.41;2101800;28;20183;-70
2022/03/16 02:20:59;;;;;;;24.67;13.77;;;;;;;6.46;49.67;102327.13;2096531;28;20613;-70
2022/03/16 02:22:05;;;;;;;23.25;13.52;;;;;;;6.47;49.54;102336.97;2097198;28;20268;-70
2022/03/16 02:23:07;;;;;;;24.63;13.52;;;;;;;6.53;49.37;102330.00;2096445;28;20171;-70
2022/03/16 02:24:08;;;;;;;23.10;12.55;;;;;;;5.62;49.44;102185.00;2096015;28;20178;-70
2022/03/16 02:25:09;;;;;;;22.73;13.80;;;;;;;6.58;49.25;102322.25;2097022;28;20667;-70
2022/03/16 02:26:12;;;;;;;25.23;12.90;;;;;;;6.59;49.59;102317.53;2097121;28;20198;-70
2022/03/16 02:27:12;;;;;;;21.92;11.95;;;;;;;6.61;49.26;102317.97;2096804;28;20171;-70
2022/03/16 02:28:13;;;;;;;17.90;11.77;;;;;;;6.56;48.66;102307.25;2097308;28;20203;-70
2022/03/16 02:29:14;;;;;;;19.10;11.47;;;;;;;6.33;48.79;102276.13;2097040;28;20744;-70
2022/03/16 02:30:14;;;;;;;18.97;11.80;;;;;;;6.42;49.26;102296.75;2097223;28;20183;-70
2022/03/16 02:31:17;;;;;;;21.23;11.30;;;;;;;6.57;48.81;102325.38;2097123;28;20190;-70
2022/03/16 02:32:17;;;;;;;21.42;12.40;;;;;;;6.46;48.78;102294.09;2097086;28;20187;-70
2022/03/16 02:33:19;;;;;;;23.20;12.70;;;;;;;6.57;49.13;102309.63;2096471;28;20178;-70
2022/03/16 02:34:19;;;;;;;21.80;12.05;;;;;;;6.56;48.63;102315.53;2095715;28;20262;-70
2022/03/16 02:35:21;;;;;;;20.13;13.13;;;;;;;6.43;48.86;102297.56;2097058;28;20195;-70
2022/03/16 02:36:22;;;;;;;18.05;12.80;;;;;;;6.47;49.48;102309.44;2096961;28;20194;-70
2022/03/16 02:37:22;;;;;;;16.83;11.73;;;;;;;6.29;49.56;102283.50;2096904;28;20202;-70
2022/03/16 02:38:23;;;;;;;20.87;11.67;;;;;;;6.48;48.87;102322.03;2097075;28;20178;-70
2022/03/16 02:39:23;;;;;;;20.17;12.53;;;;;;;6.47;49.65;102314.94;2096843;28;20186;-70
2022/03/16 02:40:24;;;;;;;17.93;12.70;;;;;;;6.48;48.69;102324.78;2097064;28;20187;-70
2022/03/16 02:41:25;;;;;;;17.73;12.30;;;;;;;6.45;48.47;102317.25;2096413;28;20168;-70
2022/03/16 02:42:25;;;;;;;15.10;11.47;;;;;;;5.30;49.61;102142.28;2096568;28;20172;-70
2022/03/16 02:43:27;;;;;;;15.50;11.23;;;;;;;5.14;49.27;102116.81;2096226;28;20740;-70
2022/03/16 02:44:28;;;;;;;17.63;12.32;;;;;;;4.99;49.17;102076.44;2102832;28;20182;-70
2022/03/16 02:45:29;;;;;;;15.33;11.47;;;;;;;6.47;49.20;102309.44;2105096;28;20175;-70
2022/03/16 02:46:29;;;;;;;20.27;11.77;;;;;;;6.42;49.26;102316.03;2105366;28;20257;-70
2022/03/16 02:47:30;;;;;;;15.97;12.07;;;;;;;6.37;49.42;102307.28;2105098;28;20179;-70
2022/03/16 02:48:31;;;;;;;17.47;12.20;;;;;;;5.85;49.72;102243.69;2105437;28;20564;-70
2022/03/16 02:49:31;;;;;;;18.23;12.02;;;;;;;6.26;49.33;102289.75;2105266;28;20182;-70
2022/03/16 02:50:32;;;;;;;23.70;12.07;;;;;;;6.29;49.72;102306.34;2105423;28;20261;-70
2022/03/16 02:51:32;;;;;;;21.07;11.43;;;;;;;6.34;49.85;102310.75;2105438;28;20669;-70
2022/03/16 02:52:33;;;;;;;18.87;11.70;;;;;;;5.23;49.76;102126.41;2105283;28;20199;-70
2022/03/16 02:53:33;;;;;;;16.90;11.70;;;;;;;6.42;50.11;102304.22;2104184;28;20186;-70
2022/03/16 02:54:34;;;;;;;17.00;11.40;;;;;;;5.65;49.78;102178.78;2103986;28;20236;-70
2022/03/16 02:55:35;;;;;;;14.13;10.93;;;;;;;6.39;50.46;102296.69;2104603;28;20268;-70
2022/03/16 02:56:36;;;;;;;15.33;11.60;;;;;;;5.14;49.78;102094.81;2104669;28;20421;-70
2022/03/16 02:57:37;;;;;;;16.33;11.37;;;;;;;6.40;50.36;102296.31;2104467;28;20179;-70
2022/03/16 02:58:37;;;;;;;18.95;12.30;;;;;;;6.35;50.26;102295.84;2105448;28;20190;-70
2022/03/16 02:59:38;;;;;;;19.17;12.30;;;;;;;6.33;50.50;102300.88;2105311;28;20185;-70
2022/03/16 03:00:38;;;;;;;20.50;12.13;;;;;;;4.88;50.79;102080.91;2105598;28;20178;-70
2022/03/16 03:01:39;;;;;;;17.67;11.47;;;;;;;5.43;50.79;102169.28;2105540;28;20257;-70
2022/03/16 03:02:41;;;;;;;21.77;11.77;;;;;;;6.24;50.86;102289.28;2105028;28;20227;-70
2022/03/16 03:03:42;;;;;;;16.77;11.57;;;;;;;6.24;51.01;102283.78;2104776;28;20181;-70
2022/03/16 03:04:42;;;;;;;18.55;12.30;;;;;;;6.22;51.12;102275.09;2104858;28;20178;-70
2022/03/16 03:05:43;;;;;;;16.17;11.70;;;;;;;5.34;51.37;102140.41;2105025;28;20653;-70
2022/03/16 03:06:44;;;;;;;18.70;13.00;;;;;;;6.26;51.21;102262.22;2104452;28;20179;-70
2022/03/16 03:07:44;;;;;;;17.13;12.23;;;;;;;4.93;51.63;102077.88;2104383;28;20179;-70
2022/03/16 03:08:45;;;;;;;18.83;11.73;;;;;;;6.28;51.54;102265.38;2105375;28;20182;-70
2022/03/16 03:09:45;;;;;;;17.07;12.10;;;;;;;5.86;52.14;102212.25;2105319;28;20252;-70
2022/03/16 03:10:45;;;;;;;17.43;11.70;;;;;;;6.22;50.72;102266.84;2105201;28;20178;-70
2022/03/16 03:11:46;;;;;;;17.13;11.73;;;;;;;6.24;52.01;102267.28;2105341;28;20560;-70
2022/03/16 03:12:47;;;;;;;19.13;11.97;;;;;;;6.26;51.81;102273.22;2104871;28;20182;-70
2022/03/16 03:13:47;;;;;;;15.90;11.27;;;;;;;6.32;52.04;102271.78;2104663;28;20175;-70
2022/03/16 03:14:47;;;;;;;16.10;11.80;;;;;;;6.35;51.85;102265.56;2104752;28;20205;-70
2022/03/16 03:15:48;;;;;;;17.80;11.97;;;;;;;5.95;51.52;102193.56;2104418;28;20212;-70
2022/03/16 03:16:48;;;;;;;19.93;12.57;;;;;;;6.36;51.30;102264.38;2103745;28;20666;-70
2022/03/16 03:17:49;;;;;;;24.40;12.60;;;;;;;6.37;51.73;102260.47;2105176;28;20171;-70
2022/03/16 03:18:50;;;;;;;21.00;12.27;;;;;;;5.35;51.71;102095.25;2106910;28;20251;-70
2022/03/16 03:19:50;;;;;;;21.73;12.73;;;;;;;6.38;51.90;102259.28;2104954;28;20262;-70
2022/03/16 03:20:51;;;;;;;21.37;12.90;;;;;;;6.36;51.93;102261.63;2098269;28;20215;-70
2022/03/16 03:21:51;;;;;;;25.83;12.30;;;;;;;5.46;51.83;102115.53;2098383;28;20206;-70
2022/03/16 03:22:52;;;;;;;24.07;12.27;;;;;;;6.26;51.66;102240.97;2097996;28;20663;-70
2022/03/16 03:23:52;;;;;;;23.07;11.37;;;;;;;6.42;51.19;102263.69;2097321;28;20187;-70
2022/03/16 03:24:55;;;;;;;22.63;11.57;;;;;;;6.23;51.10;102236.22;2097432;28;20183;-70
2022/03/16 03:25:55;;;;;;;18.75;12.07;;;;;;;6.42;50.44;102268.44;2097675;28;20165;-70
2022/03/16 03:26:55;;;;;;;22.17;12.03;;;;;;;6.40;50.84;102266.03;2097879;28;20650;-70
2022/03/16 03:27:56;;;;;;;23.07;12.90;;;;;;;6.40;51.63;102270.75;2097943;28;20192;-70
2022/03/16 03:28:56;;;;;;;18.90;11.50;;;;;;;6.44;51.06;102272.41;2098508;28;20230;-70
2022/03/16 03:29:57;;;;;;;18.57;11.83;;;;;;;4.79;50.86;102006.16;2098379;28;20652;-70
2022/03/16 03:30:57;;;;;;;16.87;11.67;;;;;;;6.50;50.42;102268.19;2098089;28;20196;-70
2022/03/16 03:31:58;;;;;;;18.17;11.77;;;;;;;6.53;50.74;102266.66;2098469;28;20179;-70
2022/03/16 03:32:58;;;;;;;17.50;10.43;;;;;;;6.52;50.96;102265.06;2098136;28;20182;-70
2022/03/16 03:33:59;;;;;;;15.30;10.57;;;;;;;6.43;50.56;102254.28;2097243;28;20578;-70
2022/03/16 03:35:00;;;;;;;15.27;10.30;;;;;;;6.49;51.43;102257.53;2098441;28;20569;-70
2022/03/16 03:36:00;;;;;;;15.97;11.00;;;;;;;5.63;51.37;102126.88;2098280;28;20202;-70
2022/03/16 03:37:01;;;;;;;14.50;9.97;;;;;;;6.42;51.40;102255.44;2097731;28;20426;-70
2022/03/16 03:38:02;;;;;;;14.33;10.83;;;;;;;6.42;51.75;102252.69;2097688;28;20182;-70
2022/03/16 03:39:03;;;;;;;16.40;10.90;;;;;;;6.40;51.58;102249.50;2098410;28;20231;-70
2022/03/16 03:40:05;;;;;;;15.57;10.47;;;;;;;6.37;52.07;102250.25;2098325;28;20170;-70
2022/03/16 03:41:06;;;;;;;15.90;10.82;;;;;;;5.73;52.63;102142.00;2098112;28;20551;-70
2022/03/16 03:42:07;;;;;;;14.73;10.73;;;;;;;6.34;52.53;102252.91;2098331;28;20216;-70
2022/03/16 03:43:08;;;;;;;15.45;10.70;;;;;;;6.32;51.97;102252.50;2097652;28;20182;-70
2022/03/16 03:44:08;;;;;;;18.03;13.07;;;;;;;5.62;51.09;102147.28;2097186;28;20197;-70
2022/03/16 03:45:09;;;;;;;18.70;13.30;;;;;;;6.26;51.15;102238.22;2098371;28;20169;-70
2022/03/16 03:46:10;;;;;;;19.47;13.27;;;;;;;6.30;50.81;102235.56;2098225;28;20171;-70
2022/03/16 03:47:10;;;;;;;27.23;15.77;;;;;;;6.03;51.30;102206.31;2097891;28;20178;-70
2022/03/16 03:48:11;;;;;;;41.50;16.57;;;;;;;6.17;51.58;102234.09;2098120;28;20169;-70
2022/03/16 03:49:11;;;;;;;44.17;16.47;;;;;;;6.19;51.89;102229.84;2096921;28;20174;-71
2022/03/16 03:50:12;;;;;;;39.33;16.60;;;;;;;6.26;52.04;102232.72;2097634;28;20172;-70
2022/03/16 03:51:13;;;;;;;25.73;13.87;;;;;;;6.33;52.94;102230.09;2098134;28;20205;-70
2022/03/16 03:52:14;;;;;;;24.63;13.73;;;;;;;5.09;52.11;102042.91;2098371;28;20176;-70
2022/03/16 03:53:15;;;;;;;20.97;12.93;;;;;;;5.56;51.23;102102.00;2097554;28;20184;-70
2022/03/16 03:54:16;;;;;;;22.65;13.38;;;;;;;6.34;51.40;102230.88;2097668;28;20219;-70
2022/03/16 03:55:16;;;;;;;21.13;13.07;;;;;;;5.79;51.46;102138.59;2097578;28;20190;-70
2022/03/16 03:56:17;;;;;;;17.93;12.40;;;;;;;6.19;51.54;102198.75;2097742;28;20248;-70
2022/03/16 03:57:17;;;;;;;20.17;12.33;;;;;;;6.52;51.70;102241.06;2097607;28;20800;-70
2022/03/16 03:58:18;;;;;;;26.87;13.70;;;;;;;6.58;51.39;102236.88;2098171;28;20315;-70
2022/03/16 03:59:19;;;;;;;27.37;12.97;;;;;;;6.60;51.48;102228.22;2097533;28;20181;-70
2022/03/16 04:00:20;;;;;;;30.70;14.30;;;;;;;6.60;51.85;102226.28;2098115;28;20192;-70
2022/03/16 04:01:21;;;;;;;32.83;13.63;;;;;;;6.63;52.12;102230.25;2098064;28;20170;-70
2022/03/16 04:02:21;;;;;;;27.90;13.13;;;;;;;6.62;52.37;102236.94;2098132;28;20612;-70
2022/03/16 04:03:22;;;;;;;24.57;12.73;;;;;;;6.57;52.27;102235.25;2097326;28;20556;-70
2022/03/16 04:04:22;;;;;;;25.23;14.07;;;;;;;5.69;52.25;102117.16;2097315;28;20257;-70
2022/03/16 04:05:23;;;;;;;27.17;12.70;;;;;;;5.28;52.60;102051.91;2098321;28;20252;-70
2022/03/16 04:06:23;;;;;;;23.07;13.77;;;;;;;5.83;52.77;102105.66;2098062;28;20250;-70
2022/03/16 04:07:24;;;;;;;22.13;12.80;;;;;;;6.49;52.51;102191.44;2097669;28;20319;-70
2022/03/16 04:08:24;;;;;;;19.50;13.63;;;;;;;6.61;52.62;102211.34;2098134;28;20754;-70
2022/03/16 04:09:25;;;;;;;21.67;14.00;;;;;;;6.67;51.94;102217.34;2098320;28;20202;-70
2022/03/16 04:10:25;;;;;;;20.83;13.93;;;;;;;6.73;51.66;102235.97;2097451;28;20179;-70
2022/03/16 04:11:26;;;;;;;22.60;13.30;;;;;;;6.65;51.48;102225.16;2097117;28;20209;-70
2022/03/16 04:12:26;;;;;;;22.83;13.70;;;;;;;6.67;51.09;102234.66;2089092;28;20208;-70
2022/03/16 04:13:27;;;;;;;19.07;13.83;;;;;;;6.63;50.94;102231.06;2104451;28;20587;-70
2022/03/16 04:14:27;;;;;;;23.90;14.17;;;;;;;6.66;50.39;102218.50;2105569;28;20686;-70
2022/03/16 04:15:28;;;;;;;19.43;13.53;;;;;;;5.91;50.21;102099.16;2106575;28;20256;-70
2022/03/16 04:16:29;;;;;;;22.80;14.07;;;;;;;5.49;50.88;102027.59;2106311;28;20261;-70
2022/03/16 04:17:29;;;;;;;23.60;15.53;;;;;;;6.65;51.05;102214.94;2106013;28;20173;-70
2022/03/16 04:18:30;;;;;;;22.80;14.87;;;;;;;6.68;50.85;102213.41;2106406;28;20552;-70
2022/03/16 04:19:30;;;;;;;21.50;15.07;;;;;;;6.66;51.27;102216.53;2104243;28;20192;-70
2022/03/16 04:20:31;;;;;;;28.57;14.70;;;;;;;5.68;51.89;102046.81;2104955;28;20215;-70
2022/03/16 04:21:33;;;;;;;23.40;15.53;;;;;;;6.57;51.85;102182.91;2105991;28;20566;-70
2022/03/16 04:22:34;;;;;;;25.65;16.20;;;;;;;6.72;50.69;102203.25;2106185;28;20172;-70
2022/03/16 04:23:34;;;;;;;34.50;16.00;;;;;;;6.63;51.04;102183.41;2105735;28;20724;-70
2022/03/16 04:24:35;;;;;;;24.77;15.63;;;;;;;6.68;51.41;102205.16;2105866;28;20182;-70
2022/03/16 04:25:35;;;;;;;27.40;16.27;;;;;;;6.46;50.97;102192.97;2106338;28;20205;-70
2022/03/16 04:26:36;;;;;;;23.90;15.30;;;;;;;6.05;51.62;102127.72;2106321;28;20206;-70
2022/03/16 04:27:37;;;;;;;22.37;14.13;;;;;;;6.60;51.22;102201.47;2105785;28;20205;-70
2022/03/16 04:28:37;;;;;;;22.10;13.57;;;;;;;6.66;51.80;102197.25;2106355;28;20539;-70
2022/03/16 04:29:38;;;;;;;24.70;16.93;;;;;;;6.73;51.59;102202.09;2105567;28;20177;-70
2022/03/16 04:30:38;;;;;;;25.17;15.40;;;;;;;6.76;51.22;102201.38;2105839;28;20201;-70
2022/03/16 04:31:39;;;;;;;26.47;15.63;;;;;;;6.64;51.58;102177.56;2104578;28;20196;-70
2022/03/16 04:32:39;;;;;;;24.73;16.00;;;;;;;6.83;51.40;102195.97;2105325;28;20188;-70
2022/03/16 04:33:40;;;;;;;32.07;16.57;;;;;;;6.79;51.69;102190.41;2105629;28;20255;-70
2022/03/16 04:34:41;;;;;;;33.30;16.50;;;;;;;6.88;51.71;102195.66;2105746;28;20181;-70
2022/03/16 04:35:41;;;;;;;26.10;16.65;;;;;;;6.90;51.17;102187.78;2106190;28;20178;-70
2022/03/16 04:36:43;;;;;;;33.37;16.93;;;;;;;6.92;51.00;102185.50;2106211;28;20186;-70
2022/03/16 04:37:43;;;;;;;30.88;16.95;;;;;;;6.93;50.91;102190.59;2104960;28;20606;-70
2022/03/16 04:38:44;;;;;;;30.77;17.50;;;;;;;6.93;51.09;102182.34;2105607;28;20266;-70
2022/03/16 04:39:44;;;;;;;34.07;17.53;;;;;;;6.60;51.58;102132.63;2105507;28;20211;-70